createdAt,value
2019-01-06T00:00:21.605Z,9.10
2019-01-06T00:03:43.438Z,8.63
2019-01-06T00:07:06.241Z,7.83
2019-01-06T00:10:41.677Z,6.67
2019-01-06T00:14:03.261Z,7.00
2019-01-06T00:17:21.792Z,13.97
2019-01-06T00:20:43.699Z,14.87
2019-01-06T00:24:05.319Z,13.27
2019-01-06T00:27:27.083Z,13.87
2019-01-06T00:31:05.262Z,12.20
2019-01-06T00:34:27.629Z,12.53
2019-01-06T00:37:49.323Z,7.73
2019-01-06T00:41:18.216Z,8.23
2019-01-06T00:44:43.808Z,11.50
2019-01-06T00:48:09.826Z,10.23
2019-01-06T00:51:47.713Z,11.40
2019-01-06T00:55:09.753Z,10.93
2019-01-06T00:58:37.529Z,10.40
2019-01-06T01:01:57.103Z,11.40
2019-01-06T01:05:18.872Z,11.07
2019-01-06T01:08:38.830Z,10.30
2019-01-06T01:12:11.056Z,10.47
2019-01-06T01:15:28.422Z,10.30
2019-01-06T01:18:54.125Z,10.53
2019-01-06T01:22:12.695Z,9.13
2019-01-06T01:25:38.699Z,9.30
2019-01-06T01:29:00.212Z,10.00
2019-01-06T01:32:27.607Z,10.50
2019-01-06T01:35:49.110Z,10.27
2019-01-06T01:39:10.575Z,8.97
2019-01-06T01:42:28.323Z,8.90
2019-01-06T01:45:50.105Z,9.50
2019-01-06T01:49:16.883Z,9.27
2019-01-06T01:52:37.878Z,9.20
2019-01-06T01:56:00.738Z,8.50
2019-01-06T01:59:23.635Z,8.17
2019-01-06T02:02:45.308Z,8.20
2019-01-06T02:06:08.138Z,9.43
2019-01-06T02:09:29.846Z,9.13
2019-01-06T02:12:50.064Z,8.90
2019-01-06T02:16:11.507Z,9.63
2019-01-06T02:19:33.267Z,10.37
2019-01-06T02:22:54.938Z,10.20
2019-01-06T02:26:11.282Z,10.73
2019-01-06T02:29:32.696Z,10.07
2019-01-06T02:32:57.690Z,9.30
2019-01-06T02:36:19.150Z,10.23
2019-01-06T02:39:32.119Z,8.60
2019-01-06T02:43:13.449Z,8.80
2019-01-06T02:46:39.243Z,7.70
2019-01-06T02:50:00.774Z,7.63
2019-01-06T02:53:15.115Z,8.77
2019-01-06T02:56:37.956Z,9.67
2019-01-06T02:59:56.021Z,9.27
2019-01-06T03:03:30.730Z,9.20
2019-01-06T03:06:46.439Z,8.67
2019-01-06T03:10:07.980Z,9.00
2019-01-06T03:13:37.171Z,9.80
2019-01-06T03:16:59.999Z,9.47
2019-01-06T03:20:20.137Z,9.57
2019-01-06T03:23:41.613Z,8.57
2019-01-06T03:26:54.466Z,8.17
2019-01-06T03:30:29.334Z,10.33
2019-01-06T03:34:01.141Z,8.03
2019-01-06T03:37:36.086Z,10.10
2019-01-06T03:41:04.893Z,8.77
2019-01-06T03:44:26.476Z,7.60
2019-01-06T03:47:42.827Z,8.60
2019-01-06T03:51:08.186Z,7.60
2019-01-06T03:54:39.979Z,8.80
2019-01-06T03:58:01.688Z,8.53
2019-01-06T04:01:30.522Z,7.90
2019-01-06T04:04:52.194Z,8.37
2019-01-06T04:08:30.664Z,7.63
2019-01-06T04:12:04.469Z,7.43
2019-01-06T04:15:26.075Z,7.47
2019-01-06T04:18:55.395Z,8.13
2019-01-06T04:22:17.081Z,7.97
2019-01-06T04:25:49.310Z,8.07
2019-01-06T04:29:12.217Z,7.93
2019-01-06T04:32:41.758Z,8.03
2019-01-06T04:36:13.471Z,7.90
2019-01-06T04:39:35.109Z,8.33
2019-01-06T04:42:57.928Z,8.60
2019-01-06T04:46:15.585Z,11.13
2019-01-06T04:49:37.281Z,10.63
2019-01-06T04:52:59.005Z,9.73
2019-01-06T04:56:27.887Z,10.40
2019-01-06T05:00:02.885Z,9.47
2019-01-06T05:03:29.507Z,9.47
2019-01-06T05:06:55.096Z,9.50
2019-01-06T05:10:27.220Z,9.80
2019-01-06T05:13:48.866Z,9.70
2019-01-06T05:17:11.814Z,9.47
2019-01-06T05:20:32.665Z,8.57
2019-01-06T05:24:04.394Z,7.57
2019-01-06T05:27:42.223Z,8.53
2019-01-06T05:31:01.003Z,8.37
2019-01-06T05:34:23.853Z,8.80
2019-01-06T05:37:45.332Z,8.03
2019-01-06T05:41:05.688Z,7.73
2019-01-06T05:44:34.353Z,7.80
2019-01-06T05:48:09.484Z,9.07
2019-01-06T05:51:31.052Z,7.80
2019-01-06T05:54:52.612Z,9.70
2019-01-06T05:58:21.677Z,8.70
2019-01-06T06:01:48.816Z,9.27
2019-01-06T06:05:11.232Z,7.87
2019-01-06T06:08:32.749Z,9.67
2019-01-06T06:11:58.570Z,8.17
2019-01-06T06:15:20.287Z,8.50
2019-01-06T06:18:38.158Z,8.57
2019-01-06T06:21:55.892Z,7.87
2019-01-06T06:25:20.990Z,8.50
2019-01-06T06:28:58.291Z,8.03
2019-01-06T06:32:20.203Z,7.87
2019-01-06T06:35:49.289Z,8.00
2019-01-06T06:39:11.097Z,9.17
2019-01-06T06:42:32.874Z,9.27
2019-01-06T06:45:54.495Z,9.87
2019-01-06T06:49:09.985Z,10.13
2019-01-06T06:52:28.852Z,9.40
2019-01-06T06:56:03.514Z,8.97
2019-01-06T06:59:29.335Z,8.60
2019-01-06T07:03:08.992Z,9.20
2019-01-06T07:06:25.162Z,10.87
2019-01-06T07:09:47.996Z,11.70
2019-01-06T07:13:13.621Z,9.40
2019-01-06T07:17:21.717Z,9.73
2019-01-06T07:20:44.495Z,12.13
2019-01-06T07:24:06.208Z,12.40
2019-01-06T07:27:30.201Z,9.73
2019-01-06T07:30:52.880Z,10.60
2019-01-06T07:34:25.622Z,10.30
2019-01-06T07:37:47.359Z,11.07
2019-01-06T07:41:13.211Z,10.83
2019-01-06T07:44:38.840Z,10.37
2019-01-06T07:47:54.926Z,10.07
2019-01-06T07:51:23.902Z,10.97
2019-01-06T07:54:45.241Z,10.83
2019-01-06T07:58:06.763Z,9.70
2019-01-06T08:01:34.855Z,10.13
2019-01-06T08:05:00.455Z,9.63
2019-01-06T08:08:22.185Z,9.53
2019-01-06T08:11:49.315Z,9.57
2019-01-06T08:15:10.985Z,10.10
2019-01-06T08:18:43.078Z,9.80
2019-01-06T08:22:04.799Z,10.40
2019-01-06T08:25:26.502Z,10.73
2019-01-06T08:28:48.246Z,13.47
2019-01-06T08:32:17.252Z,13.43
2019-01-06T08:35:37.733Z,14.53
2019-01-06T08:39:01.223Z,16.77
2019-01-06T08:42:22.991Z,16.13
2019-01-06T08:45:44.695Z,18.17
2019-01-06T08:49:13.589Z,16.37
2019-01-06T08:52:42.272Z,15.17
2019-01-06T08:56:04.069Z,15.50
2019-01-06T08:59:38.783Z,13.03
2019-01-06T09:03:10.633Z,12.93
2019-01-06T09:06:33.810Z,12.57
2019-01-06T09:09:55.277Z,13.53
2019-01-06T09:13:18.191Z,14.90
2019-01-06T09:16:42.183Z,14.20
2019-01-06T09:20:03.751Z,13.77
2019-01-06T09:23:18.445Z,15.90
2019-01-06T09:26:44.098Z,12.90
2019-01-06T09:30:05.743Z,12.87
2019-01-06T09:33:21.093Z,11.97
2019-01-06T09:36:43.022Z,14.33
2019-01-06T09:40:08.846Z,14.20
2019-01-06T09:43:31.672Z,14.70
2019-01-06T09:46:54.503Z,14.17
2019-01-06T09:50:19.364Z,14.57
2019-01-06T09:53:42.211Z,16.17
2019-01-06T09:57:04.007Z,13.63
2019-01-06T10:00:27.589Z,15.67
2019-01-06T10:03:52.139Z,15.43
2019-01-06T10:07:17.924Z,18.50
2019-01-06T10:10:41.400Z,14.77
2019-01-06T10:14:02.729Z,30.90
2019-01-06T10:17:24.147Z,15.60
2019-01-06T10:20:45.470Z,13.60
2019-01-06T10:23:59.419Z,13.50
2019-01-06T10:27:28.321Z,14.87
2019-01-06T10:30:49.891Z,14.77
2019-01-06T10:34:14.168Z,16.17
2019-01-06T10:37:40.096Z,16.17
2019-01-06T10:40:56.447Z,16.37
2019-01-06T10:44:29.342Z,15.50
2019-01-06T10:47:58.550Z,16.43
2019-01-06T10:51:20.333Z,17.73
2019-01-06T10:54:43.194Z,24.97
2019-01-06T10:58:04.910Z,23.63
2019-01-06T11:01:22.485Z,26.70
2019-01-06T11:04:44.289Z,19.77
2019-01-06T11:08:18.019Z,18.70
2019-01-06T11:11:48.049Z,20.30
2019-01-06T11:15:20.072Z,17.37
2019-01-06T11:18:41.880Z,16.23
2019-01-06T11:22:04.790Z,15.27
2019-01-06T11:25:30.867Z,14.40
2019-01-06T11:28:52.547Z,11.17
2019-01-06T11:32:14.236Z,10.70
2019-01-06T11:35:39.823Z,11.93
2019-01-06T11:39:07.040Z,10.57
2019-01-06T11:42:20.315Z,6.53
2019-01-06T11:45:42.008Z,5.50
2019-01-06T11:49:16.665Z,4.40
2019-01-06T11:52:42.352Z,4.63
2019-01-06T11:56:09.834Z,3.23
2019-01-06T11:59:30.367Z,2.87
2019-01-06T12:02:53.590Z,2.97
2019-01-06T12:06:16.439Z,3.17
2019-01-06T12:09:38.201Z,3.33
2019-01-06T12:12:59.871Z,2.83
2019-01-06T12:16:25.510Z,3.60
2019-01-06T12:19:45.538Z,2.93
2019-01-06T12:23:08.327Z,3.10
2019-01-06T12:26:34.528Z,3.40
2019-01-06T12:29:57.343Z,3.80
2019-01-06T12:33:25.866Z,3.40
2019-01-06T12:36:56.886Z,3.60
2019-01-06T12:40:18.557Z,3.37
2019-01-06T12:43:40.537Z,4.83
2019-01-06T12:47:02.390Z,3.47
2019-01-06T12:50:19.737Z,3.60
2019-01-06T12:53:40.075Z,3.00
2019-01-06T12:56:57.991Z,3.70
2019-01-06T13:00:19.579Z,3.63
2019-01-06T13:03:41.519Z,2.70
2019-01-06T13:07:03.210Z,3.43
2019-01-06T13:10:26.589Z,2.87
2019-01-06T13:13:53.538Z,2.83
2019-01-06T13:17:17.727Z,2.30
2019-01-06T13:20:47.029Z,2.63
2019-01-06T13:24:08.769Z,2.30
2019-01-06T13:27:34.496Z,2.97
2019-01-06T13:31:00.522Z,2.57
2019-01-06T13:34:16.096Z,2.40
2019-01-06T13:37:54.629Z,2.00
2019-01-06T13:41:16.556Z,2.53
2019-01-06T13:44:41.373Z,2.93
2019-01-06T13:48:16.292Z,2.13
2019-01-06T13:51:38.070Z,2.30
2019-01-06T13:55:04.081Z,1.87
2019-01-06T13:58:26.902Z,2.50
2019-01-06T14:01:55.703Z,7.63
2019-01-06T14:05:33.504Z,6.40
2019-01-06T14:08:55.013Z,7.53
2019-01-06T14:12:16.762Z,3.40
2019-01-06T14:15:39.597Z,3.73
2019-01-06T14:18:58.268Z,2.57
2019-01-06T14:22:19.065Z,2.10
2019-01-06T14:25:40.740Z,2.80
2019-01-06T14:29:02.406Z,3.00
2019-01-06T14:32:25.175Z,3.17
2019-01-06T14:35:48.005Z,5.10
2019-01-06T14:39:11.026Z,4.13
2019-01-06T14:42:32.767Z,3.77
2019-01-06T14:45:46.651Z,3.13
2019-01-06T14:49:12.257Z,3.47
2019-01-06T14:52:39.132Z,4.30
2019-01-06T14:56:01.158Z,3.63
2019-01-06T14:59:18.417Z,3.63
2019-01-06T15:02:37.770Z,4.07
2019-01-06T15:05:59.246Z,4.20
2019-01-06T15:09:20.772Z,3.33
2019-01-06T15:12:44.616Z,3.33
2019-01-06T15:16:06.084Z,3.53
2019-01-06T15:19:25.578Z,4.20
2019-01-06T15:22:48.770Z,3.57
2019-01-06T15:26:09.559Z,3.33
2019-01-06T15:29:32.393Z,3.13
2019-01-06T15:32:54.021Z,3.07
2019-01-06T15:36:15.751Z,4.03
2019-01-06T15:39:41.304Z,4.80
2019-01-06T15:43:16.268Z,3.93
2019-01-06T15:46:44.874Z,3.20
2019-01-06T15:50:07.708Z,3.57
2019-01-06T15:53:48.801Z,7.93
2019-01-06T15:57:10.429Z,4.87
2019-01-06T16:00:39.534Z,7.47
2019-01-06T16:04:16.680Z,4.60
2019-01-06T16:07:38.152Z,3.70
2019-01-06T16:11:16.360Z,4.47
2019-01-06T16:14:45.314Z,3.13
2019-01-06T16:18:10.955Z,3.50
2019-01-06T16:21:32.654Z,3.30
2019-01-06T16:24:56.421Z,3.40
2019-01-06T16:28:12.703Z,3.10
2019-01-06T16:31:41.645Z,3.40
2019-01-06T16:35:11.847Z,3.50
2019-01-06T16:38:33.774Z,3.90
2019-01-06T16:42:08.956Z,5.50
2019-01-06T16:45:30.605Z,3.37
2019-01-06T16:48:57.280Z,3.23
2019-01-06T16:52:25.156Z,3.47
2019-01-06T16:55:46.639Z,3.57
2019-01-06T16:59:27.947Z,4.73
2019-01-06T17:02:49.720Z,3.73
2019-01-06T17:06:18.619Z,4.63
2019-01-06T17:09:50.664Z,5.67
2019-01-06T17:13:10.756Z,4.37
2019-01-06T17:16:32.983Z,3.80
2019-01-06T17:19:45.711Z,4.43
2019-01-06T17:23:07.483Z,4.53
2019-01-06T17:26:25.846Z,4.30
2019-01-06T17:29:51.412Z,5.73
2019-01-06T17:33:14.227Z,4.73
2019-01-06T17:36:37.217Z,5.60
2019-01-06T17:39:58.182Z,5.47
2019-01-06T17:43:33.396Z,5.20
2019-01-06T17:46:55.143Z,5.57
2019-01-06T17:50:30.258Z,6.33
2019-01-06T17:54:11.294Z,6.07
2019-01-06T17:57:37.977Z,5.27
2019-01-06T18:01:18.995Z,6.37
2019-01-06T18:04:44.579Z,5.77
2019-01-06T18:08:13.428Z,5.63
2019-01-06T18:11:35.161Z,5.73
2019-01-06T18:14:54.052Z,6.00
2019-01-06T18:18:26.134Z,6.10
2019-01-06T18:21:59.518Z,6.23
2019-01-06T18:25:34.707Z,6.10
2019-01-06T18:28:58.022Z,5.70
2019-01-06T18:32:29.941Z,4.60
2019-01-06T18:35:51.589Z,6.07
2019-01-06T18:39:22.777Z,4.77
2019-01-06T18:42:44.480Z,6.20
2019-01-06T18:46:06.198Z,6.47
2019-01-06T18:49:22.731Z,4.97
2019-01-06T18:52:56.244Z,5.80
2019-01-06T18:56:13.426Z,5.10
2019-01-06T18:59:45.538Z,5.50
2019-01-06T19:03:07.402Z,5.53
2019-01-06T19:06:29.423Z,5.40
2019-01-06T19:09:51.417Z,5.37
2019-01-06T19:13:29.684Z,5.43
2019-01-06T19:16:46.472Z,6.43
2019-01-06T19:20:20.385Z,6.90
2019-01-06T19:23:40.071Z,5.73
2019-01-06T19:27:21.551Z,5.93
2019-01-06T19:30:37.640Z,5.13
2019-01-06T19:34:00.467Z,6.60
2019-01-06T19:37:41.455Z,5.93
2019-01-06T19:41:13.349Z,5.30
2019-01-06T19:44:54.344Z,5.83
2019-01-06T19:48:29.317Z,4.70
2019-01-06T19:51:52.148Z,4.63
2019-01-06T19:55:09.851Z,4.23
2019-01-06T19:58:37.821Z,4.90
2019-01-06T20:01:59.437Z,4.90
2019-01-06T20:05:40.693Z,4.63
2019-01-06T20:09:11.677Z,5.10
2019-01-06T20:12:46.477Z,3.43
2019-01-06T20:16:15.355Z,6.27
2019-01-06T20:19:37.011Z,7.13
2019-01-06T20:22:58.845Z,7.20
2019-01-06T20:26:13.424Z,5.47
2019-01-06T20:29:45.115Z,3.63
2019-01-06T20:33:00.821Z,4.23
2019-01-06T20:36:22.311Z,4.03
2019-01-06T20:39:51.538Z,4.10
2019-01-06T20:43:23.598Z,4.63
2019-01-06T20:47:04.580Z,4.60
2019-01-06T20:50:27.414Z,3.50
2019-01-06T20:53:49.363Z,4.30
2019-01-06T20:57:11.168Z,3.93
2019-01-06T21:00:26.958Z,4.13
2019-01-06T21:04:01.497Z,5.17
2019-01-06T21:07:19.578Z,4.80
2019-01-06T21:10:41.411Z,4.37
2019-01-06T21:14:03.333Z,4.87
2019-01-06T21:17:25.235Z,4.53
2019-01-06T21:20:41.022Z,4.93
2019-01-06T21:24:09.671Z,4.40
2019-01-06T21:27:28.805Z,4.73
2019-01-06T21:30:50.291Z,4.80
2019-01-06T21:34:10.894Z,4.87
2019-01-06T21:37:36.556Z,4.57
2019-01-06T21:40:58.098Z,4.73
2019-01-06T21:44:15.479Z,4.27
2019-01-06T21:47:36.969Z,4.03
2019-01-06T21:50:58.683Z,4.57
2019-01-06T21:54:15.440Z,3.87
2019-01-06T21:57:38.258Z,4.27
2019-01-06T22:00:56.553Z,4.23
2019-01-06T22:04:13.871Z,4.50
2019-01-06T22:07:46.357Z,4.90
2019-01-06T22:11:06.727Z,4.43
2019-01-06T22:14:29.591Z,3.70
2019-01-06T22:18:04.790Z,4.50
2019-01-06T22:21:30.425Z,5.57
2019-01-06T22:25:00.193Z,4.17
2019-01-06T22:28:35.238Z,4.83
2019-01-06T22:31:50.941Z,5.33
2019-01-06T22:35:19.581Z,4.13
2019-01-06T22:38:57.526Z,4.60
2019-01-06T22:42:29.243Z,4.73
2019-01-06T22:45:50.851Z,5.30
2019-01-06T22:49:06.576Z,4.87
2019-01-06T22:52:26.652Z,6.80
2019-01-06T22:55:48.188Z,5.20
2019-01-06T22:59:09.732Z,5.20
2019-01-06T23:02:48.002Z,5.13
2019-01-06T23:06:18.575Z,6.27
2019-01-06T23:09:51.458Z,5.33
2019-01-06T23:13:08.669Z,5.57
2019-01-06T23:16:30.219Z,5.60
2019-01-06T23:19:49.363Z,4.90
2019-01-06T23:23:27.284Z,5.67
2019-01-06T23:26:48.852Z,5.47
2019-01-06T23:30:10.634Z,6.00
2019-01-06T23:33:32.395Z,5.43
2019-01-06T23:36:54.058Z,4.90
2019-01-06T23:40:32.099Z,5.67
2019-01-06T23:44:01.059Z,5.17
2019-01-06T23:47:22.578Z,5.50
2019-01-06T23:50:42.718Z,4.77
2019-01-06T23:53:56.442Z,7.10
2019-01-06T23:57:18.702Z,5.10
